Time;durP1;ratioP1;P1;durP2;ratioP2;P2;SDS_P1;SDS_P2;PMS_P1;PMS_P2;Temp;Humidity;BMP_temperature;BMP_pressure;BME280_temperature;BME280_humidity;BME280_pressure;Samples;Min_cycle;Max_cycle;Signal;HPM_P1;HPM_P2
2023/06/10 00:00:35;;;;;;;24.23;8.05;;;18.20;99.90;;;;;;5051323;28;20639;-66
2023/06/10 00:03:01;;;;;;;21.13;8.52;;;18.00;99.90;;;;;;5067051;28;20221;-66
2023/06/10 00:05:29;;;;;;;22.15;8.40;;;18.00;99.90;;;;;;5071607;28;20173;-66
2023/06/10 00:07:56;;;;;;;19.67;8.43;;;18.00;99.90;;;;;;5071478;28;20164;-67
2023/06/10 00:10:22;;;;;;;21.17;8.45;;;18.00;99.90;;;;;;5071246;28;20239;-66
2023/06/10 00:12:47;;;;;;;24.02;7.95;;;18.00;99.90;;;;;;5071295;28;20251;-67
2023/06/10 00:15:13;;;;;;;25.83;8.48;;;18.00;99.90;;;;;;5071221;28;20537;-64
2023/06/10 00:17:39;;;;;;;27.45;8.18;;;17.90;99.90;;;;;;5071167;28;20165;-69
2023/06/10 00:20:08;;;;;;;21.60;7.80;;;17.80;99.90;;;;;;5071371;28;20172;-70
2023/06/10 00:22:34;;;;;;;26.83;9.15;;;17.70;99.90;;;;;;5071285;28;20306;-70
2023/06/10 00:25:00;;;;;;;24.98;8.80;;;17.70;99.90;;;;;;5071058;28;20206;-69
2023/06/10 00:27:31;;;;;;;23.25;8.38;;;17.70;99.90;;;;;;5071072;28;20508;-70
2023/06/10 00:29:56;;;;;;;23.58;8.68;;;17.70;99.90;;;;;;5064595;28;20211;-69
2023/06/10 00:32:22;;;;;;;21.02;8.45;;;17.60;99.90;;;;;;5054600;28;20169;-70
2023/06/10 00:34:48;;;;;;;29.10;8.50;;;17.50;99.90;;;;;;5054869;28;20181;-69
2023/06/10 00:37:13;;;;;;;23.95;8.65;;;17.40;99.90;;;;;;5065929;28;20248;-70
2023/06/10 00:39:39;;;;;;;20.30;8.65;;;17.40;99.90;;;;;;5059508;28;20173;-69
2023/06/10 00:42:06;;;;;;;26.23;8.57;;;17.30;99.90;;;;;;5069836;28;20662;-70
2023/06/10 00:44:32;;;;;;;27.77;9.25;;;17.20;99.90;;;;;;5070810;28;20180;-69
2023/06/10 00:46:58;;;;;;;24.10;9.20;;;17.20;99.90;;;;;;5070808;28;20248;-70
2023/06/10 00:49:24;;;;;;;18.13;8.48;;;17.20;99.90;;;;;;5070711;28;20238;-70
2023/06/10 00:51:52;;;;;;;25.58;8.70;;;17.20;99.90;;;;;;5070927;28;20172;-70
2023/06/10 00:54:18;;;;;;;22.58;8.10;;;17.00;99.90;;;;;;5070911;28;20251;-69
2023/06/10 00:56:43;;;;;;;21.10;8.05;;;16.90;99.90;;;;;;5070709;28;20550;-69
2023/06/10 00:59:09;;;;;;;24.92;8.13;;;16.80;99.90;;;;;;5070870;28;20242;-69
2023/06/10 01:01:37;;;;;;;22.15;8.75;;;16.80;99.90;;;;;;5070664;28;20185;-68
2023/06/10 01:04:04;;;;;;;22.15;8.68;;;16.80;99.90;;;;;;5074684;28;20169;-70
2023/06/10 01:07:01;;;;;;;26.38;8.85;;;16.70;99.90;;;;;;5075040;28;20215;-68
2023/06/10 01:09:48;;;;;;;27.52;8.30;;;16.50;99.90;;;;;;5074701;28;20192;-71
2023/06/10 01:12:28;;;;;;;24.45;8.35;;;16.50;99.90;;;;;;5074808;28;20172;-69
2023/06/10 01:14:55;;;;;;;19.08;8.23;;;16.50;99.90;;;;;;5074553;28;20176;-70
2023/06/10 01:17:21;;;;;;;23.50;8.57;;;16.50;99.90;;;;;;5075219;28;20226;-70
2023/06/10 01:19:56;;;;;;;20.55;8.68;;;16.50;99.90;;;;;;5076902;28;20173;-70
2023/06/10 01:22:28;;;;;;;22.55;8.68;;;16.40;99.90;;;;;;5074981;28;20175;-71
2023/06/10 01:24:58;;;;;;;23.00;9.45;;;16.30;99.90;;;;;;5073396;28;20172;-71
2023/06/10 01:27:29;;;;;;;19.92;8.50;;;16.40;99.90;;;;;;5074703;28;20172;-70
2023/06/10 01:30:17;;;;;;;33.33;9.60;;;16.40;99.90;;;;;;5074527;28;20219;-72
2023/06/10 01:32:48;;;;;;;26.05;8.73;;;16.30;99.90;;;;;;5063703;28;20185;-72
2023/06/10 01:35:14;;;;;;;23.05;8.65;;;16.30;99.90;;;;;;5054337;28;20205;-70
2023/06/10 01:37:42;;;;;;;24.40;8.63;;;16.40;99.90;;;;;;5036378;28;20181;-66
2023/06/10 01:40:09;;;;;;;21.80;8.57;;;16.30;99.90;;;;;;5057997;28;20647;-68
2023/06/10 01:42:35;;;;;;;23.33;8.15;;;16.30;99.90;;;;;;5065817;28;20204;-67
2023/06/10 01:45:01;;;;;;;26.95;10.65;;;16.20;99.90;;;;;;5056309;28;20177;-67
2023/06/10 01:47:27;;;;;;;23.45;8.30;;;16.10;99.90;;;;;;5055741;28;20673;-67
2023/06/10 01:49:52;;;;;;;21.65;9.40;;;16.10;99.90;;;;;;5064731;28;20792;-67
2023/06/10 01:52:18;;;;;;;24.65;9.00;;;15.90;99.90;;;;;;5063743;28;20173;-72
2023/06/10 01:54:44;;;;;;;21.05;8.38;;;;;;;;;;5067742;28;20665;-73
2023/06/10 01:57:10;;;;;;;19.15;8.43;;;15.80;99.90;;;;;;5073788;28;20250;-71
2023/06/10 01:59:37;;;;;;;25.27;8.80;;;;;;;;;;5073680;28;20655;-71
2023/06/10 02:02:04;;;;;;;23.77;8.45;;;15.80;99.90;;;;;;5073709;28;20169;-73
2023/06/10 02:04:29;;;;;;;20.65;8.27;;;15.80;99.90;;;;;;5073999;28;20230;-72
2023/06/10 02:06:55;;;;;;;23.60;9.32;;;15.90;99.90;;;;;;5073536;28;20189;-68
2023/06/10 02:09:22;;;;;;;25.55;9.25;;;15.80;99.90;;;;;;5073509;28;20176;-68
2023/06/10 02:11:48;;;;;;;23.05;9.32;;;15.70;99.90;;;;;;5073552;28;20184;-68
2023/06/10 02:14:14;;;;;;;23.40;8.68;;;15.70;99.90;;;;;;5072906;28;20690;-67
2023/06/10 02:16:40;;;;;;;26.13;9.38;;;15.70;99.90;;;;;;5073450;28;20185;-67
2023/06/10 02:19:06;;;;;;;24.13;9.18;;;15.60;99.90;;;;;;5073518;28;20260;-67
2023/06/10 02:21:34;;;;;;;21.55;8.23;;;15.70;99.90;;;;;;5073427;28;20667;-67
2023/06/10 02:24:00;;;;;;;30.13;9.25;;;15.70;99.90;;;;;;5073508;28;20176;-68
2023/06/10 02:26:26;;;;;;;26.08;10.05;;;15.70;99.90;;;;;;5073197;28;20173;-67
2023/06/10 02:28:51;;;;;;;24.85;8.88;;;15.80;99.90;;;;;;5073293;28;20180;-68
2023/06/10 02:31:17;;;;;;;29.83;10.45;;;15.80;99.90;;;;;;5073002;28;20699;-67
2023/06/10 02:33:44;;;;;;;26.25;10.65;;;15.80;99.90;;;;;;5073576;28;20179;-66
2023/06/10 02:36:13;;;;;;;27.48;9.60;;;15.90;99.90;;;;;;5073123;28;20251;-69
2023/06/10 02:38:40;;;;;;;29.65;9.50;;;15.90;99.90;;;;;;5073127;28;20647;-66
2023/06/10 02:41:06;;;;;;;24.58;10.02;;;15.90;99.90;;;;;;5073137;28;20183;-68
2023/06/10 02:43:31;;;;;;;22.70;9.68;;;15.90;99.90;;;;;;5071368;28;20536;-70
2023/06/10 02:45:57;;;;;;;24.08;10.20;;;15.80;99.90;;;;;;5063401;28;20636;-70
2023/06/10 02:48:27;;;;;;;28.02;10.43;;;15.80;99.90;;;;;;5066564;28;20184;-70
2023/06/10 02:50:53;;;;;;;20.08;10.57;;;15.70;99.90;;;;;;5062763;28;20220;-70
2023/06/10 02:53:18;;;;;;;28.52;10.75;;;15.70;99.90;;;;;;5052538;28;20501;-68
2023/06/10 02:55:44;;;;;;;23.70;10.02;;;15.80;99.90;;;;;;5063696;28;20223;-69
2023/06/10 02:58:10;;;;;;;22.55;10.05;;;15.80;99.90;;;;;;5055270;28;20679;-70
2023/06/10 03:00:36;;;;;;;21.67;10.20;;;15.90;99.90;;;;;;5066350;28;20230;-70
2023/06/10 03:03:03;;;;;;;23.08;10.27;;;15.80;99.90;;;;;;5055489;28;20177;-69
2023/06/10 03:05:29;;;;;;;26.10;10.88;;;15.70;99.90;;;;;;5053178;28;20177;-68
2023/06/10 03:07:55;;;;;;;25.10;11.50;;;15.80;99.90;;;;;;5061930;28;20173;-70
2023/06/10 03:10:21;;;;;;;23.52;10.27;;;15.70;99.90;;;;;;5067569;28;20687;-70
2023/06/10 03:12:46;;;;;;;25.35;10.93;;;15.70;99.90;;;;;;5060304;28;20209;-69
2023/06/10 03:15:12;;;;;;;23.77;11.07;;;15.70;99.90;;;;;;5066217;28;20725;-69
2023/06/10 03:17:38;;;;;;;25.50;10.70;;;15.70;99.90;;;;;;5068256;28;20187;-69
2023/06/10 03:20:10;;;;;;;26.67;10.98;;;15.80;99.90;;;;;;5054076;28;20259;-70
2023/06/10 03:22:35;;;;;;;24.08;11.80;;;15.80;99.90;;;;;;5072022;28;20179;-69
2023/06/10 03:25:01;;;;;;;25.75;11.20;;;15.70;99.90;;;;;;5070383;28;20169;-69
2023/06/10 03:27:28;;;;;;;30.70;12.13;;;15.60;99.90;;;;;;5059992;28;20180;-69
2023/06/10 03:29:54;;;;;;;24.45;11.93;;;15.60;99.90;;;;;;5072155;28;20212;-68
2023/06/10 03:32:20;;;;;;;28.92;12.75;;;15.60;99.90;;;;;;5067840;28;20188;-70
2023/06/10 03:34:47;;;;;;;25.00;11.75;;;15.70;99.90;;;;;;5072099;28;20203;-70
2023/06/10 03:37:13;;;;;;;28.67;12.30;;;15.70;99.90;;;;;;5055348;28;20717;-69
2023/06/10 03:39:38;;;;;;;30.42;12.32;;;15.70;99.90;;;;;;5071891;28;20251;-70
2023/06/10 03:42:05;;;;;;;28.02;12.52;;;15.80;99.90;;;;;;5054761;28;20558;-69
2023/06/10 03:44:31;;;;;;;33.65;14.25;;;15.80;99.90;;;;;;5051999;28;20264;-70
2023/06/10 03:46:57;;;;;;;28.70;12.73;;;15.80;99.90;;;;;;5053125;28;20259;-69
2023/06/10 03:49:25;;;;;;;25.98;12.77;;;15.80;99.90;;;;;;5071542;28;20635;-69
2023/06/10 03:51:51;;;;;;;23.10;12.95;;;15.60;99.90;;;;;;5059429;28;20177;-69
2023/06/10 03:54:16;;;;;;;26.00;12.48;;;15.70;99.90;;;;;;5070827;28;20199;-69
2023/06/10 03:56:42;;;;;;;29.85;13.07;;;15.70;99.90;;;;;;5071390;28;20207;-69
2023/06/10 03:59:07;;;;;;;30.02;12.93;;;15.80;99.90;;;;;;5071716;28;20180;-69
2023/06/10 04:01:35;;;;;;;26.73;13.18;;;15.80;99.90;;;;;;5071675;28;20257;-67
2023/06/10 04:04:01;;;;;;;28.08;13.45;;;15.70;99.90;;;;;;5071726;28;20172;-67
2023/06/10 04:06:28;;;;;;;37.55;13.45;;;15.80;99.90;;;;;;5076091;28;20203;-67
2023/06/10 04:08:56;;;;;;;31.05;13.52;;;15.90;99.90;;;;;;5076912;28;20173;-70
2023/06/10 04:11:23;;;;;;;30.13;14.35;;;16.00;99.90;;;;;;5073004;28;20274;-70
2023/06/10 04:13:49;;;;;;;28.95;14.32;;;15.90;99.90;;;;;;5072044;28;20173;-69
2023/06/10 04:16:15;;;;;;;34.45;14.23;;;;;;;;;;5071497;28;20657;-69
2023/06/10 04:18:41;;;;;;;33.17;13.63;;;15.90;99.90;;;;;;5071538;28;20178;-70
2023/06/10 04:21:08;;;;;;;32.92;13.27;;;15.90;99.90;;;;;;5071411;28;20179;-68
2023/06/10 04:23:35;;;;;;;34.20;14.10;;;15.90;99.90;;;;;;5071234;28;20244;-68
2023/06/10 04:26:00;;;;;;;35.30;14.82;;;15.90;99.90;;;;;;5071105;28;20647;-68
2023/06/10 04:28:26;;;;;;;32.83;13.88;;;15.90;99.90;;;;;;5071165;28;20606;-68
2023/06/10 04:30:52;;;;;;;29.30;13.95;;;15.90;99.90;;;;;;5071174;28;20215;-68
2023/06/10 04:33:18;;;;;;;53.15;15.80;;;15.80;99.90;;;;;;5071132;28;20193;-68
2023/06/10 04:35:44;;;;;;;29.90;13.82;;;15.90;99.90;;;;;;5070974;28;20213;-69
2023/06/10 04:38:10;;;;;;;30.83;13.25;;;16.00;99.90;;;;;;5070711;28;20199;-70
2023/06/10 04:40:35;;;;;;;34.58;14.20;;;16.10;99.90;;;;;;5071141;28;20635;-70
2023/06/10 04:43:01;;;;;;;32.00;14.10;;;16.00;99.90;;;;;;5071019;28;20251;-70
2023/06/10 04:45:28;;;;;;;29.52;13.65;;;;;;;;;;5064781;28;20634;-70
2023/06/10 04:47:55;;;;;;;31.52;14.65;;;16.00;99.90;;;;;;5051135;28;20181;-71
2023/06/10 04:50:21;;;;;;;31.63;14.35;;;16.00;99.90;;;;;;5050851;28;20228;-67
2023/06/10 04:52:46;;;;;;;37.88;14.52;;;16.00;99.90;;;;;;5054614;28;20169;-69
2023/06/10 04:55:12;;;;;;;29.88;14.57;;;16.00;99.90;;;;;;5059906;28;20275;-67
2023/06/10 04:57:38;;;;;;;28.60;14.30;;;15.90;99.90;;;;;;5059101;28;20169;-67
2023/06/10 05:00:05;;;;;;;37.38;15.57;;;16.00;99.90;;;;;;5052215;28;20219;-67
2023/06/10 05:02:31;;;;;;;35.15;14.90;;;16.10;99.90;;;;;;5060945;28;20267;-68
2023/06/10 05:04:57;;;;;;;32.40;14.02;;;16.20;99.90;;;;;;5069106;28;20199;-68
2023/06/10 05:07:23;;;;;;;38.83;14.27;;;16.20;99.90;;;;;;5059330;28;20507;-66
2023/06/10 05:09:49;;;;;;;28.65;14.38;;;16.40;99.90;;;;;;5070727;28;20207;-66
2023/06/10 05:12:15;;;;;;;31.25;14.30;;;16.30;99.90;;;;;;5070871;28;20215;-66
2023/06/10 05:14:41;;;;;;;27.50;14.15;;;16.30;99.90;;;;;;5070636;28;20587;-67
2023/06/10 05:17:06;;;;;;;30.60;14.35;;;16.30;99.90;;;;;;5070671;28;20184;-66
2023/06/10 05:19:32;;;;;;;31.33;14.80;;;16.40;99.90;;;;;;5070708;28;20188;-66
2023/06/10 05:21:58;;;;;;;28.08;14.20;;;16.50;99.90;;;;;;5070526;28;20165;-67
2023/06/10 05:24:23;;;;;;;33.58;15.07;;;16.50;99.90;;;;;;5070589;28;20173;-67
2023/06/10 05:26:49;;;;;;;32.92;14.57;;;16.50;99.90;;;;;;5070659;28;20535;-67
2023/06/10 05:29:15;;;;;;;27.33;13.43;;;16.40;99.90;;;;;;5052449;28;20644;-67
2023/06/10 05:31:41;;;;;;;29.02;13.98;;;16.50;99.90;;;;;;5070466;28;20256;-68
2023/06/10 05:34:07;;;;;;;26.85;13.82;;;16.60;99.90;;;;;;5070495;28;20773;-68
2023/06/10 05:36:32;;;;;;;34.95;14.68;;;16.60;99.90;;;;;;5070301;28;20239;-66
2023/06/10 05:38:58;;;;;;;35.65;15.25;;;16.70;99.90;;;;;;5070413;28;20226;-67
2023/06/10 05:41:25;;;;;;;31.42;15.45;;;16.90;99.90;;;;;;5067251;28;20177;-68
2023/06/10 05:43:50;;;;;;;31.88;15.23;;;16.80;99.90;;;;;;5060218;28;20161;-69
2023/06/10 05:46:16;;;;;;;32.17;14.80;;;16.90;99.90;;;;;;5070198;28;20260;-67
2023/06/10 05:48:42;;;;;;;34.13;14.48;;;16.80;99.90;;;;;;5053667;28;20675;-67
2023/06/10 05:51:07;;;;;;;30.35;13.73;;;16.80;99.90;;;;;;5053643;28;20258;-67
2023/06/10 05:53:33;;;;;;;33.80;14.27;;;16.80;99.90;;;;;;5053992;28;20188;-67
2023/06/10 05:55:58;;;;;;;31.75;13.73;;;16.80;99.90;;;;;;5054002;28;20214;-67
2023/06/10 05:58:24;;;;;;;35.40;14.65;;;16.90;99.90;;;;;;5053884;28;20176;-67
2023/06/10 06:00:50;;;;;;;34.22;13.90;;;16.90;99.90;;;;;;5064878;28;20279;-68
2023/06/10 06:03:17;;;;;;;31.95;15.20;;;16.90;99.90;;;;;;5073677;28;20176;-67
2023/06/10 06:05:43;;;;;;;33.40;14.75;;;17.00;99.90;;;;;;5073640;28;20242;-67
2023/06/10 06:08:10;;;;;;;31.23;14.45;;;17.10;99.90;;;;;;5063262;28;20631;-67
2023/06/10 06:10:36;;;;;;;37.15;14.98;;;17.10;99.90;;;;;;5066528;28;20224;-68
2023/06/10 06:13:02;;;;;;;31.17;14.13;;;17.00;99.90;;;;;;5056238;28;20234;-69
2023/06/10 06:15:28;;;;;;;30.70;14.48;;;17.10;99.90;;;;;;5053709;28;20220;-68
2023/06/10 06:17:53;;;;;;;29.88;14.20;;;17.20;99.90;;;;;;5060003;28;20172;-68
2023/06/10 06:20:20;;;;;;;34.55;15.18;;;17.10;99.90;;;;;;5073384;28;20179;-69
2023/06/10 06:22:46;;;;;;;30.45;14.15;;;17.10;99.90;;;;;;5073416;28;20301;-68
2023/06/10 06:25:11;;;;;;;29.80;14.18;;;17.10;99.90;;;;;;5073170;28;20260;-68
2023/06/10 06:27:37;;;;;;;31.65;14.05;;;17.10;99.90;;;;;;5073379;28;20180;-68
2023/06/10 06:30:03;;;;;;;29.70;13.70;;;17.30;99.90;;;;;;5073197;28;20212;-68
2023/06/10 06:32:29;;;;;;;25.95;12.43;;;17.30;99.90;;;;;;5073294;28;20188;-68
2023/06/10 06:34:55;;;;;;;29.85;12.85;;;17.30;99.90;;;;;;5072969;28;20178;-68
2023/06/10 06:37:23;;;;;;;31.83;14.63;;;17.40;99.90;;;;;;5071560;28;20365;-67
2023/06/10 06:39:50;;;;;;;30.27;13.50;;;17.40;99.90;;;;;;5071659;28;20169;-67
2023/06/10 06:42:16;;;;;;;28.77;12.93;;;17.60;99.90;;;;;;5073020;28;20172;-67
2023/06/10 06:44:42;;;;;;;29.85;13.90;;;17.40;99.90;;;;;;5075287;28;20176;-69
2023/06/10 06:47:08;;;;;;;34.05;13.30;;;17.50;99.90;;;;;;5076051;28;20251;-66
2023/06/10 06:49:33;;;;;;;28.17;12.30;;;17.50;99.90;;;;;;5072917;28;20280;-64
2023/06/10 06:51:59;;;;;;;27.92;13.30;;;17.70;99.90;;;;;;5070150;28;20647;-64
2023/06/10 06:54:24;;;;;;;24.88;12.38;;;17.90;99.90;;;;;;5056697;28;20235;-64
2023/06/10 06:56:50;;;;;;;29.02;13.13;;;17.90;99.90;;;;;;5072755;28;20180;-64
2023/06/10 06:59:18;;;;;;;25.70;12.48;;;17.80;99.90;;;;;;5072494;28;20168;-64
2023/06/10 07:01:44;;;;;;;22.73;11.40;;;17.80;99.90;;;;;;5072457;28;20168;-64
2023/06/10 07:04:10;;;;;;;27.73;12.18;;;18.00;99.90;;;;;;5072548;28;20643;-65
2023/06/10 07:06:36;;;;;;;21.75;11.80;;;18.10;99.90;;;;;;5072739;28;20184;-65
2023/06/10 07:09:02;;;;;;;26.02;11.48;;;18.20;99.90;;;;;;5072303;28;20635;-64
2023/06/10 07:11:27;;;;;;;20.92;11.48;;;18.30;99.90;;;;;;5060714;28;20212;-64
2023/06/10 07:13:53;;;;;;;30.23;12.27;;;18.40;99.90;;;;;;5057034;28;20176;-64
2023/06/10 07:16:20;;;;;;;28.75;11.93;;;18.40;99.90;;;;;;5070476;28;20176;-63
2023/06/10 07:18:46;;;;;;;27.25;11.68;;;18.40;99.90;;;;;;5071813;28;20805;-65
2023/06/10 07:21:11;;;;;;;24.30;11.82;;;18.50;99.90;;;;;;5060531;28;20177;-65
2023/06/10 07:23:37;;;;;;;20.77;11.68;;;18.70;99.90;;;;;;5072305;28;20180;-66
2023/06/10 07:26:03;;;;;;;23.65;11.55;;;18.60;99.90;;;;;;5071929;28;20183;-66
2023/06/10 07:28:29;;;;;;;25.75;11.82;;;18.50;99.90;;;;;;5066367;28;20605;-66
2023/06/10 07:30:54;;;;;;;28.88;11.50;;;18.60;99.90;;;;;;5070656;28;20212;-65
2023/06/10 07:33:20;;;;;;;22.58;11.48;;;18.60;99.90;;;;;;5071373;28;20179;-67
2023/06/10 07:35:46;;;;;;;29.60;11.68;;;18.50;99.90;;;;;;5071788;28;20220;-65
2023/06/10 07:38:11;;;;;;;29.88;11.07;;;18.50;99.90;;;;;;5071629;28;20206;-64
2023/06/10 07:40:37;;;;;;;27.20;11.60;;;18.50;99.90;;;;;;5071945;28;20647;-65
2023/06/10 07:43:02;;;;;;;20.70;10.73;;;18.60;99.90;;;;;;5071578;28;20173;-64
2023/06/10 07:45:28;;;;;;;25.67;10.95;;;18.70;99.90;;;;;;5071711;28;20516;-63
2023/06/10 07:47:54;;;;;;;25.63;10.48;;;18.80;99.90;;;;;;5071572;28;20532;-64
2023/06/10 07:50:20;;;;;;;20.27;10.30;;;18.90;99.90;;;;;;5069846;28;20211;-65
2023/06/10 07:52:46;;;;;;;25.48;10.85;;;18.90;99.90;;;;;;5068280;28;20188;-66
2023/06/10 07:55:11;;;;;;;29.55;11.07;;;19.00;99.90;;;;;;5065191;28;20902;-67
2023/06/10 07:57:38;;;;;;;23.15;10.50;;;18.80;99.90;;;;;;5051499;28;20176;-68
2023/06/10 08:00:05;;;;;;;24.70;9.93;;;18.70;99.90;;;;;;5052559;28;20173;-69
2023/06/10 08:02:31;;;;;;;30.63;11.63;;;18.80;99.90;;;;;;5051497;28;20173;-66
2023/06/10 08:04:57;;;;;;;28.33;10.93;;;18.60;99.90;;;;;;5051644;28;20295;-66
2023/06/10 08:07:22;;;;;;;30.52;10.90;;;18.80;99.90;;;;;;5051384;28;20520;-64
2023/06/10 08:09:48;;;;;;;32.67;10.23;;;18.70;99.90;;;;;;5051188;28;20295;-67
2023/06/10 08:12:14;;;;;;;25.73;10.38;;;18.90;99.90;;;;;;5055643;28;20640;-64
2023/06/10 08:14:39;;;;;;;25.73;9.60;;;18.90;99.90;;;;;;5065729;28;20255;-64
2023/06/10 08:17:06;;;;;;;19.63;9.02;;;19.10;99.90;;;;;;5070554;28;20177;-65
2023/06/10 08:19:32;;;;;;;25.55;10.43;;;19.20;99.90;;;;;;5071351;28;20173;-64
2023/06/10 08:21:57;;;;;;;21.73;9.63;;;19.20;99.90;;;;;;5070983;28;20172;-65
2023/06/10 08:24:23;;;;;;;20.52;9.25;;;19.20;99.90;;;;;;5053602;28;20718;-65
2023/06/10 08:26:48;;;;;;;24.17;9.68;;;19.40;99.90;;;;;;5061997;28;20201;-65
2023/06/10 08:29:14;;;;;;;24.13;9.52;;;19.40;99.90;;;;;;5051221;28;20171;-65
2023/06/10 08:31:44;;;;;;;26.10;9.80;;;19.40;99.90;;;;;;5062999;28;20702;-66
2023/06/10 08:34:10;;;;;;;24.85;9.32;;;19.50;99.90;;;;;;5071059;28;20191;-67
2023/06/10 08:36:36;;;;;;;28.42;9.50;;;19.80;99.90;;;;;;5069926;28;20707;-66
2023/06/10 08:39:02;;;;;;;33.00;9.82;;;20.00;99.90;;;;;;5054294;28;20181;-66
2023/06/10 08:41:36;;;;;;;23.50;9.13;;;20.30;99.90;;;;;;5050586;28;20176;-66
2023/06/10 08:44:26;;;;;;;20.00;8.90;;;20.50;99.90;;;;;;5050722;28;20212;-66
2023/06/10 08:46:55;;;;;;;30.13;9.18;;;20.90;99.90;;;;;;5050829;28;20208;-67
2023/06/10 08:49:23;;;;;;;24.20;9.48;;;21.30;99.90;;;;;;5051468;28;20184;-67
2023/06/10 08:51:58;;;;;;;27.17;9.45;;;21.40;99.90;;;;;;5050794;28;20178;-67
2023/06/10 08:54:27;;;;;;;25.73;9.38;;;21.70;99.90;;;;;;5050692;28;20247;-65
2023/06/10 08:56:55;;;;;;;25.55;8.75;;;22.00;99.90;;;;;;5050738;28;20177;-67
2023/06/10 08:59:21;;;;;;;24.80;8.63;;;22.40;99.90;;;;;;5066505;28;20187;-68
2023/06/10 09:01:47;;;;;;;24.33;9.13;;;22.60;99.90;;;;;;5052341;28;20188;-66
2023/06/10 09:04:13;;;;;;;19.98;7.85;;;23.10;99.90;;;;;;5067659;28;20210;-66
2023/06/10 09:06:40;;;;;;;22.33;7.70;;;23.20;99.90;;;;;;5070510;28;20173;-66
2023/06/10 09:09:07;;;;;;;22.80;8.52;;;23.50;99.90;;;;;;5036031;28;20600;-66
2023/06/10 09:11:33;;;;;;;22.13;8.55;;;23.80;99.90;;;;;;5070268;28;20216;-65
2023/06/10 09:13:58;;;;;;;25.15;8.45;;;23.90;99.90;;;;;;5070309;28;20179;-64
2023/06/10 09:16:27;;;;;;;28.75;13.15;;;24.30;99.90;;;;;;5070408;28;20525;-64
2023/06/10 09:18:55;;;;;;;26.65;10.38;;;24.20;99.90;;;;;;5070566;28;20198;-64
2023/06/10 09:21:24;;;;;;;24.40;8.50;;;24.10;99.90;;;;;;5065258;28;20296;-65
2023/06/10 09:23:50;;;;;;;22.67;8.32;;;24.40;99.90;;;;;;5050570;28;20631;-65
2023/06/10 09:26:16;;;;;;;24.05;8.55;;;24.40;99.90;;;;;;5058587;28;20169;-63
2023/06/10 09:28:50;;;;;;;21.48;8.05;;;24.60;99.90;;;;;;5072739;28;20179;-66
2023/06/10 09:31:18;;;;;;;22.25;7.80;;;24.60;99.90;;;;;;5062829;28;20627;-63
2023/06/10 09:33:45;;;;;;;18.20;7.82;;;25.30;99.90;;;;;;5055522;28;20664;-67
2023/06/10 09:36:11;;;;;;;19.98;7.45;;;25.50;99.90;;;;;;5053914;28;20698;-66
2023/06/10 09:38:37;;;;;;;24.40;8.45;;;25.70;99.90;;;;;;5054339;28;20177;-65
2023/06/10 09:41:03;;;;;;;24.20;7.72;;;24.90;99.90;;;;;;5036355;28;20180;-65
2023/06/10 09:43:44;;;;;;;21.33;7.55;;;24.90;99.90;;;;;;5054084;28;20252;-66
2023/06/10 09:46:17;;;;;;;23.42;8.63;;;24.60;99.90;;;;;;5036291;28;20689;-65
2023/06/10 09:48:44;;;;;;;23.35;7.00;;;24.70;99.90;;;;;;5053923;28;20173;-66
2023/06/10 09:51:10;;;;;;;22.92;8.48;;;25.30;99.90;;;;;;5054159;28;20216;-66
2023/06/10 09:53:37;;;;;;;22.38;8.68;;;25.80;99.90;;;;;;5053891;28;20650;-65
2023/06/10 09:56:02;;;;;;;23.05;8.02;;;25.70;99.90;;;;;;5072277;28;20184;-64
2023/06/10 09:58:38;;;;;;;21.58;7.72;;;26.00;99.90;;;;;;5073411;28;20181;-66
2023/06/10 10:01:12;;;;;;;18.60;7.28;;;25.90;99.90;;;;;;5055018;28;20553;-64
2023/06/10 10:03:48;;;;;;;17.27;7.65;;;26.70;99.90;;;;;;5062853;28;20176;-64
2023/06/10 10:06:15;;;;;;;21.33;7.82;;;26.40;99.90;;;;;;5060306;28;20196;-66
2023/06/10 10:08:41;;;;;;;19.50;7.43;;;26.20;99.90;;;;;;5054001;28;20203;-65
2023/06/10 10:11:07;;;;;;;23.88;8.00;;;26.10;99.90;;;;;;5053497;28;20686;-65
2023/06/10 10:13:34;;;;;;;18.02;7.30;;;25.90;99.90;;;;;;5053510;28;20173;-65
2023/06/10 10:16:10;;;;;;;20.13;7.47;;;26.30;99.90;;;;;;5053676;28;20203;-66
2023/06/10 10:18:41;;;;;;;19.60;7.43;;;26.70;99.90;;;;;;5069616;28;20208;-66
2023/06/10 10:21:13;;;;;;;16.55;7.50;;;26.70;99.90;;;;;;5073423;28;20263;-67
2023/06/10 10:24:04;;;;;;;21.05;8.07;;;27.20;99.90;;;;;;5072893;28;20587;-67
2023/06/10 10:26:32;;;;;;;25.45;7.80;;;26.70;99.90;;;;;;5072907;28;20169;-68
2023/06/10 10:29:07;;;;;;;18.77;7.38;;;27.10;99.90;;;;;;5072548;28;20177;-70
2023/06/10 10:31:36;;;;;;;19.23;7.47;;;27.20;99.90;;;;;;5073133;28;20646;-69
2023/06/10 10:34:06;;;;;;;19.08;7.18;;;27.60;99.90;;;;;;5073277;28;20530;-65
2023/06/10 10:36:32;;;;;;;16.60;7.20;;;27.50;99.90;;;;;;5071942;28;20299;-66
2023/06/10 10:38:58;;;;;;;19.70;7.35;;;27.90;99.90;;;;;;5062097;28;20281;-65
2023/06/10 10:41:26;;;;;;;22.70;8.10;;;28.30;99.90;;;;;;5053005;28;20188;-66
2023/06/10 10:43:53;;;;;;;19.58;7.50;;;28.20;99.90;;;;;;5062641;28;20172;-65
2023/06/10 10:46:18;;;;;;;24.73;7.68;;;27.70;99.90;;;;;;5048034;28;20276;-64
2023/06/10 10:48:45;;;;;;;25.48;7.90;;;28.20;99.90;;;;;;5069498;28;20251;-64
2023/06/10 10:51:11;;;;;;;21.00;7.40;;;28.80;99.90;;;;;;5060915;28;20220;-64
2023/06/10 10:53:38;;;;;;;15.45;7.18;;;28.20;99.90;;;;;;5052786;28;20162;-65
2023/06/10 10:56:15;;;;;;;19.25;7.85;;;28.90;99.90;;;;;;5059354;28;20176;-65
2023/06/10 10:58:41;;;;;;;40.83;10.52;;;29.50;99.90;;;;;;5068845;28;20173;-65
2023/06/10 11:01:14;;;;;;;17.50;6.97;;;29.70;99.90;;;;;;5053921;28;20320;-65
2023/06/10 11:03:49;;;;;;;16.02;6.85;;;30.00;99.90;;;;;;5069521;28;20229;-65
2023/06/10 11:06:15;;;;;;;22.15;7.53;;;29.50;99.90;;;;;;5071576;28;20674;-65
2023/06/10 11:08:41;;;;;;;22.02;8.07;;;29.20;99.90;;;;;;5070895;28;20187;-65
2023/06/10 11:11:21;;;;;;;20.25;7.95;;;28.50;99.90;;;;;;5072374;28;20211;-65
2023/06/10 11:14:02;;;;;;;18.95;7.18;;;28.70;99.90;;;;;;5072369;28;20168;-65
2023/06/10 11:16:28;;;;;;;17.42;7.40;;;28.70;99.90;;;;;;5070695;28;20184;-66
2023/06/10 11:18:55;;;;;;;19.85;7.95;;;28.80;99.90;;;;;;5054325;28;20176;-64
2023/06/10 11:21:23;;;;;;;20.10;7.57;;;28.60;99.90;;;;;;5069319;28;20169;-65
2023/06/10 11:23:50;;;;;;;16.20;7.57;;;28.80;99.90;;;;;;5053136;28;20220;-66
2023/06/10 11:26:21;;;;;;;20.23;7.93;;;28.10;99.90;;;;;;5052189;28;20180;-65
2023/06/10 11:28:46;;;;;;;17.05;7.45;;;28.10;99.90;;;;;;5069026;28;20172;-66
2023/06/10 11:31:31;;;;;;;16.73;7.65;;;27.80;99.90;;;;;;5051106;28;20204;-66
2023/06/10 11:33:58;;;;;;;17.70;7.28;;;27.50;99.90;;;;;;5065326;28;20191;-64
2023/06/10 11:36:24;;;;;;;17.08;7.68;;;27.90;99.90;;;;;;5071704;28;20259;-65
2023/06/10 11:38:55;;;;;;;30.02;8.65;;;27.90;99.90;;;;;;5071886;28;20175;-64
2023/06/10 11:41:21;;;;;;;23.40;7.20;;;28.40;99.90;;;;;;5070851;28;20177;-64
2023/06/10 11:43:48;;;;;;;15.00;7.60;;;29.60;99.90;;;;;;5071519;28;20216;-64
2023/06/10 11:46:14;;;;;;;12.63;6.95;;;29.10;99.90;;;;;;5060912;28;20643;-64
2023/06/10 11:48:52;;;;;;;16.48;6.90;;;29.30;99.90;;;;;;5070737;28;20173;-65
2023/06/10 11:51:18;;;;;;;18.27;6.97;;;29.70;99.90;;;;;;5071585;28;20291;-65
2023/06/10 11:53:45;;;;;;;17.27;7.30;;;29.80;99.90;;;;;;5059781;28;20260;-66
2023/06/10 11:56:10;;;;;;;20.02;7.18;;;29.40;99.90;;;;;;5051709;28;20271;-66
2023/06/10 11:58:36;;;;;;;15.45;6.97;;;29.50;99.90;;;;;;5051497;28;20732;-65
2023/06/10 12:01:02;;;;;;;17.80;7.30;;;29.30;99.90;;;;;;5051462;28;20185;-65
2023/06/10 12:03:37;;;;;;;14.85;6.95;;;28.80;99.90;;;;;;5053035;28;20648;-65
2023/06/10 12:06:05;;;;;;;13.93;7.35;;;29.00;99.90;;;;;;5060220;28;20169;-65
2023/06/10 12:08:32;;;;;;;15.73;7.25;;;28.70;99.90;;;;;;5064900;28;20647;-64
2023/06/10 12:10:58;;;;;;;15.40;6.70;;;28.40;99.90;;;;;;5069758;28;20244;-65
2023/06/10 12:13:27;;;;;;;18.05;7.32;;;28.40;99.90;;;;;;5070972;28;20176;-64
2023/06/10 12:15:53;;;;;;;14.70;6.85;;;28.30;99.90;;;;;;5053690;28;20743;-64
2023/06/10 12:18:23;;;;;;;13.27;6.53;;;28.70;99.90;;;;;;5071168;28;20700;-66
2023/06/10 12:20:50;;;;;;;16.42;7.07;;;28.70;99.90;;;;;;5056917;28;20207;-66
2023/06/10 12:23:17;;;;;;;20.42;8.15;;;28.70;99.90;;;;;;5051202;28;20830;-65
2023/06/10 12:25:54;;;;;;;18.33;6.63;;;29.10;99.90;;;;;;5051039;28;20180;-65
2023/06/10 12:28:26;;;;;;;19.13;6.85;;;29.80;99.90;;;;;;5051085;28;20164;-65
2023/06/10 12:31:08;;;;;;;17.75;7.00;;;30.20;99.90;;;;;;5052317;28;20573;-65
2023/06/10 12:33:35;;;;;;;13.63;7.03;;;30.40;99.90;;;;;;5056917;28;20169;-64